createdAt,value
2024-03-09T00:01:11.109Z,16.23
2024-03-09T00:03:38.893Z,16.33
2024-03-09T00:06:08.200Z,19.65
2024-03-09T00:08:36.198Z,18.95
2024-03-09T00:11:03.285Z,17.67
2024-03-09T00:13:30.883Z,18.27
2024-03-09T00:16:00.178Z,15.85
2024-03-09T00:18:36.643Z,15.70
2024-03-09T00:21:10.738Z,16.80
2024-03-09T00:23:37.867Z,17.33
2024-03-09T00:26:07.338Z,18.00
2024-03-09T00:28:34.446Z,17.50
2024-03-09T00:31:01.600Z,17.77
2024-03-09T00:33:28.541Z,19.17
2024-03-09T00:35:56.156Z,17.00
2024-03-09T00:38:23.002Z,14.83
2024-03-09T00:40:50.708Z,15.50
2024-03-09T00:43:17.646Z,16.45
2024-03-09T00:45:44.523Z,15.32
2024-03-09T00:48:11.407Z,16.17
2024-03-09T00:50:38.349Z,16.70
2024-03-09T00:53:05.514Z,17.33
2024-03-09T00:55:33.378Z,16.08
2024-03-09T00:58:00.492Z,14.98
2024-03-09T01:00:27.633Z,16.60
2024-03-09T01:02:54.747Z,15.05
2024-03-09T01:05:24.294Z,15.15
2024-03-09T01:07:52.258Z,14.10
2024-03-09T01:10:19.254Z,14.85
2024-03-09T01:12:46.296Z,21.50
2024-03-09T01:15:15.160Z,13.13
2024-03-09T01:17:42.400Z,13.93
2024-03-09T01:20:10.436Z,14.45
2024-03-09T01:22:38.442Z,15.00
2024-03-09T01:25:07.935Z,15.38
2024-03-09T01:27:35.929Z,15.35
2024-03-09T01:30:03.196Z,16.98
2024-03-09T01:32:30.387Z,14.45
2024-03-09T01:34:58.111Z,15.13
2024-03-09T01:37:25.986Z,15.00
2024-03-09T01:39:53.249Z,19.40
2024-03-09T01:42:20.434Z,16.38
2024-03-09T01:44:51.109Z,14.90
2024-03-09T01:47:24.920Z,15.57
2024-03-09T01:49:52.802Z,16.10
2024-03-09T01:52:21.070Z,16.25
2024-03-09T01:54:48.701Z,15.85
2024-03-09T01:57:15.586Z,15.18
2024-03-09T01:59:46.375Z,15.30
2024-03-09T02:02:13.436Z,15.05
2024-03-09T02:04:40.491Z,14.10
2024-03-09T02:07:07.876Z,14.38
2024-03-09T02:09:35.715Z,14.38
2024-03-09T02:12:06.923Z,15.52
2024-03-09T02:14:38.430Z,15.02
2024-03-09T02:17:12.136Z,17.02
2024-03-09T02:19:42.756Z,13.85
2024-03-09T02:22:11.755Z,13.82
2024-03-09T02:24:42.644Z,14.75
2024-03-09T02:27:10.371Z,15.55
2024-03-09T02:29:37.502Z,14.45
2024-03-09T02:32:05.837Z,14.18
2024-03-09T02:34:33.368Z,14.55
2024-03-09T02:37:00.402Z,13.55
2024-03-09T02:39:29.859Z,13.18
2024-03-09T02:42:00.285Z,14.48
2024-03-09T02:44:30.263Z,13.97
2024-03-09T02:46:57.270Z,14.32
2024-03-09T02:49:26.310Z,15.03
2024-03-09T02:51:55.272Z,14.55
2024-03-09T02:54:22.504Z,14.70
2024-03-09T02:56:51.064Z,15.10
2024-03-09T02:59:18.346Z,14.87
2024-03-09T03:01:48.527Z,15.17
2024-03-09T03:04:16.669Z,14.83
2024-03-09T03:06:45.169Z,16.00
2024-03-09T03:09:17.798Z,15.00
2024-03-09T03:11:45.733Z,15.83
2024-03-09T03:14:13.242Z,15.25
2024-03-09T03:16:40.578Z,15.93
2024-03-09T03:19:08.821Z,16.27
2024-03-09T03:21:36.588Z,24.83
2024-03-09T03:24:04.157Z,26.42
2024-03-09T03:26:33.795Z,27.38
2024-03-09T03:29:03.155Z,28.02
2024-03-09T03:31:30.733Z,29.60
2024-03-09T03:33:58.468Z,27.10
2024-03-09T03:36:25.727Z,27.83
2024-03-09T03:38:52.782Z,28.37
2024-03-09T03:41:20.952Z,27.47
2024-03-09T03:43:48.231Z,27.73
2024-03-09T03:46:15.439Z,26.83
2024-03-09T03:48:47.900Z,27.20
2024-03-09T03:51:15.848Z,27.67
2024-03-09T03:53:43.380Z,28.33
2024-03-09T03:56:10.768Z,27.20
2024-03-09T03:58:40.832Z,27.17
2024-03-09T04:01:07.898Z,26.63
2024-03-09T04:03:39.330Z,26.63
2024-03-09T04:06:07.445Z,27.40
2024-03-09T04:08:34.798Z,26.17
2024-03-09T04:11:02.105Z,25.77
2024-03-09T04:13:29.192Z,26.07
2024-03-09T04:15:57.262Z,26.13
2024-03-09T04:18:24.473Z,26.17
2024-03-09T04:20:51.631Z,26.53
2024-03-09T04:23:18.843Z,26.23
2024-03-09T04:25:50.245Z,27.43
2024-03-09T04:28:24.132Z,26.43
2024-03-09T04:30:51.463Z,26.03
2024-03-09T04:33:20.357Z,26.43
2024-03-09T04:35:50.968Z,26.30
2024-03-09T04:38:18.307Z,26.65
2024-03-09T04:40:46.971Z,25.63
2024-03-09T04:43:14.803Z,26.40
2024-03-09T04:45:42.050Z,26.83
2024-03-09T04:48:11.537Z,25.80
2024-03-09T04:53:08.079Z,24.70
2024-03-09T04:55:37.561Z,25.57
2024-03-09T04:58:15.825Z,25.85
2024-03-09T05:00:43.439Z,25.77
2024-03-09T05:03:14.411Z,24.77
2024-03-09T05:05:42.195Z,25.77
2024-03-09T05:08:09.686Z,27.33
2024-03-09T05:10:38.440Z,28.93
2024-03-09T05:13:08.056Z,27.37
2024-03-09T05:15:35.670Z,28.90
2024-03-09T05:18:13.183Z,27.67
2024-03-09T05:20:40.905Z,27.17
2024-03-09T05:23:14.907Z,28.30
2024-03-09T05:25:44.176Z,27.40
2024-03-09T05:28:16.185Z,29.80
2024-03-09T05:30:45.095Z,27.43
2024-03-09T05:33:13.312Z,26.92
2024-03-09T05:35:40.745Z,37.80
2024-03-09T05:38:11.026Z,27.50
2024-03-09T05:40:38.583Z,29.17
2024-03-09T05:43:08.636Z,27.40
2024-03-09T05:45:37.469Z,27.60
2024-03-09T05:48:04.967Z,28.13
2024-03-09T05:50:32.279Z,26.97
2024-03-09T05:53:01.287Z,28.63
2024-03-09T05:55:28.673Z,27.30
2024-03-09T05:57:56.326Z,28.17
2024-03-09T06:00:29.772Z,27.50
2024-03-09T06:02:57.752Z,27.97
2024-03-09T06:05:29.718Z,27.13
2024-03-09T06:07:57.254Z,26.37
2024-03-09T06:10:25.948Z,26.37
2024-03-09T06:12:53.801Z,27.03
2024-03-09T06:15:22.025Z,25.57
2024-03-09T06:17:49.511Z,27.30
2024-03-09T06:20:17.471Z,27.10
2024-03-09T06:22:47.147Z,26.90
2024-03-09T06:27:42.550Z,34.20
2024-03-09T06:30:16.752Z,24.10
2024-03-09T06:32:48.183Z,24.37
2024-03-09T06:35:15.261Z,25.00
2024-03-09T06:37:42.300Z,25.57
2024-03-09T06:40:10.264Z,24.60
2024-03-09T06:42:37.312Z,26.10
2024-03-09T06:45:04.954Z,25.47
2024-03-09T06:47:32.905Z,26.20
2024-03-09T06:50:01.689Z,24.60
2024-03-09T06:52:30.373Z,25.03
2024-03-09T06:54:58.270Z,26.13
2024-03-09T06:57:25.365Z,24.93
2024-03-09T06:59:52.545Z,25.67
2024-03-09T07:02:20.560Z,24.60
2024-03-09T07:04:51.856Z,24.47
2024-03-09T07:07:19.117Z,23.23
2024-03-09T07:09:51.149Z,22.57
2024-03-09T07:12:18.891Z,23.80
2024-03-09T07:14:46.659Z,22.27
2024-03-09T07:17:19.193Z,22.47
2024-03-09T07:19:50.061Z,22.73
2024-03-09T07:22:16.958Z,22.13
2024-03-09T07:24:44.082Z,22.77
2024-03-09T07:27:13.304Z,22.63
2024-03-09T07:29:40.225Z,21.58
2024-03-09T07:32:10.667Z,21.57
2024-03-09T07:34:39.558Z,21.80
2024-03-09T07:37:06.418Z,21.93
2024-03-09T07:39:39.633Z,21.80
2024-03-09T07:42:07.357Z,20.43
2024-03-09T07:44:34.279Z,24.07
2024-03-09T07:47:01.750Z,22.40
2024-03-09T07:49:28.682Z,20.07
2024-03-09T07:51:57.452Z,20.10
2024-03-09T07:54:24.415Z,20.48
2024-03-09T07:56:51.360Z,26.30
2024-03-09T07:59:18.543Z,26.07
2024-03-09T08:01:49.087Z,19.35
2024-03-09T08:04:16.218Z,20.42
2024-03-09T08:06:44.558Z,22.77
2024-03-09T08:09:15.083Z,20.97
2024-03-09T08:11:42.969Z,20.80
2024-03-09T08:14:09.973Z,20.90
2024-03-09T08:16:37.247Z,21.37
2024-03-09T08:19:04.267Z,27.77
2024-03-09T08:21:31.565Z,21.13
2024-03-09T08:23:58.984Z,27.87
2024-03-09T08:26:26.254Z,23.07
2024-03-09T08:28:53.844Z,17.47
2024-03-09T08:31:20.818Z,18.42
2024-03-09T08:33:48.784Z,18.10
2024-03-09T08:36:16.150Z,20.10
2024-03-09T08:38:43.082Z,19.25
2024-03-09T08:41:10.025Z,18.27
2024-03-09T08:43:37.084Z,18.17
2024-03-09T08:46:04.907Z,18.42
2024-03-09T08:48:31.744Z,17.95
2024-03-09T08:51:01.115Z,20.90
2024-03-09T08:53:28.552Z,18.23
2024-03-09T08:55:55.608Z,21.17
2024-03-09T08:58:22.521Z,18.63
2024-03-09T09:00:49.942Z,18.27
2024-03-09T09:03:19.221Z,17.33
2024-03-09T09:05:47.232Z,18.02
2024-03-09T09:08:26.252Z,17.88
2024-03-09T09:10:55.433Z,20.50
2024-03-09T09:13:25.443Z,19.55
2024-03-09T09:15:53.490Z,14.75
2024-03-09T09:18:20.624Z,15.90
2024-03-09T09:20:55.919Z,15.30
2024-03-09T09:23:22.828Z,16.30
2024-03-09T09:25:49.762Z,16.10
2024-03-09T09:28:17.725Z,14.63
2024-03-09T09:30:48.047Z,14.30
2024-03-09T09:33:15.587Z,16.10
2024-03-09T09:35:42.690Z,14.77
2024-03-09T09:38:09.636Z,16.00
2024-03-09T09:40:36.749Z,15.77
2024-03-09T09:43:03.927Z,14.18
2024-03-09T09:45:35.263Z,14.52
2024-03-09T09:48:03.306Z,14.18
2024-03-09T09:50:35.774Z,15.45
2024-03-09T09:53:02.811Z,14.73
2024-03-09T09:55:31.215Z,14.93
2024-03-09T09:57:58.667Z,13.98
2024-03-09T10:00:25.837Z,13.32
2024-03-09T10:02:59.038Z,14.70
2024-03-09T10:05:30.703Z,12.18
2024-03-09T10:08:15.797Z,14.00
2024-03-09T10:10:45.149Z,12.85
2024-03-09T10:13:13.085Z,13.45
2024-03-09T10:15:42.629Z,14.35
2024-03-09T10:18:10.083Z,19.48
2024-03-09T10:20:37.647Z,17.42
2024-03-09T10:23:06.502Z,14.07
2024-03-09T10:25:37.411Z,14.50
2024-03-09T10:28:06.853Z,16.85
2024-03-09T10:30:34.078Z,13.88
2024-03-09T10:33:01.155Z,14.75
2024-03-09T10:35:28.860Z,14.30
2024-03-09T10:37:59.292Z,15.32
2024-03-09T10:40:27.236Z,14.55
2024-03-09T10:42:54.714Z,15.02
2024-03-09T10:45:26.277Z,14.32
2024-03-09T10:47:58.157Z,15.40
2024-03-09T10:50:28.800Z,15.40
2024-03-09T10:53:11.426Z,13.93
2024-03-09T10:56:01.119Z,14.80
2024-03-09T10:58:29.442Z,21.02
2024-03-09T11:00:56.360Z,18.38
2024-03-09T11:03:25.214Z,17.67
2024-03-09T11:05:56.753Z,17.25
2024-03-09T11:08:23.921Z,16.15
2024-03-09T11:10:51.443Z,18.95
2024-03-09T11:13:20.001Z,20.52
2024-03-09T11:15:53.378Z,21.27
2024-03-09T11:18:23.637Z,18.15
2024-03-09T11:21:01.868Z,22.48
2024-03-09T11:23:32.737Z,17.42
2024-03-09T11:26:00.549Z,16.75
2024-03-09T11:28:29.045Z,17.23
2024-03-09T11:31:12.244Z,18.60
2024-03-09T11:33:50.746Z,18.57
2024-03-09T11:39:06.322Z,16.70
2024-03-09T11:41:37.255Z,15.07
2024-03-09T11:44:07.806Z,15.30
2024-03-09T11:46:37.876Z,13.60
2024-03-09T11:49:05.084Z,14.55
2024-03-09T11:51:40.910Z,15.27
2024-03-09T11:54:11.033Z,16.08
2024-03-09T11:56:39.446Z,14.95
2024-03-09T11:59:09.402Z,15.48
2024-03-09T12:01:36.691Z,15.38
2024-03-09T12:04:06.599Z,16.58
2024-03-09T12:06:34.153Z,15.98
2024-03-09T12:09:01.436Z,15.00
2024-03-09T12:11:34.128Z,17.45
2024-03-09T12:14:04.089Z,16.42
2024-03-09T12:16:30.961Z,16.10
2024-03-09T12:18:59.901Z,14.73
2024-03-09T12:21:27.990Z,19.00
2024-03-09T12:23:55.996Z,25.98
2024-03-09T12:26:23.633Z,25.88
2024-03-09T12:28:51.129Z,32.67
2024-03-09T12:31:18.017Z,26.40
2024-03-09T12:33:45.268Z,25.50
2024-03-09T12:36:12.710Z,26.45
2024-03-09T12:38:39.746Z,28.92
2024-03-09T12:41:29.638Z,31.33
2024-03-09T12:44:01.840Z,25.75
2024-03-09T12:46:29.941Z,27.88
2024-03-09T12:48:58.744Z,27.23
2024-03-09T12:51:25.707Z,29.40
2024-03-09T12:53:59.390Z,26.00
2024-03-09T12:56:34.015Z,32.28
2024-03-09T12:59:02.391Z,26.45
2024-03-09T13:01:32.789Z,27.63
2024-03-09T13:04:13.198Z,20.15
2024-03-09T13:06:43.083Z,17.88
2024-03-09T13:09:16.417Z,18.42
2024-03-09T13:11:50.753Z,16.77
2024-03-09T13:14:23.279Z,15.13
2024-03-09T13:16:51.625Z,14.77
2024-03-09T13:19:19.062Z,14.83
2024-03-09T13:21:53.178Z,17.67
2024-03-09T13:24:23.728Z,16.42
2024-03-09T13:26:54.886Z,16.48
2024-03-09T13:29:30.096Z,24.65
2024-03-09T13:31:58.324Z,18.90
2024-03-09T13:34:26.808Z,21.73
2024-03-09T13:36:54.465Z,19.08
2024-03-09T13:39:28.603Z,17.63
2024-03-09T13:41:55.865Z,16.95
2024-03-09T13:44:25.931Z,14.73
2024-03-09T13:46:53.774Z,19.08
2024-03-09T13:49:21.510Z,17.63
2024-03-09T13:51:48.600Z,18.70
2024-03-09T13:54:19.469Z,17.00
2024-03-09T13:56:47.338Z,17.08
2024-03-09T13:59:18.370Z,14.70
2024-03-09T14:01:46.138Z,17.25
2024-03-09T14:04:14.245Z,16.67
2024-03-09T14:06:56.521Z,16.20
2024-03-09T14:09:31.955Z,17.60
2024-03-09T14:11:59.702Z,19.17
2024-03-09T14:14:27.160Z,15.52
2024-03-09T14:16:56.411Z,14.63
2024-03-09T14:19:23.442Z,14.07
2024-03-09T14:21:52.078Z,19.00
2024-03-09T14:24:19.924Z,16.03
2024-03-09T14:26:47.193Z,14.32
2024-03-09T14:29:17.303Z,15.82
2024-03-09T14:31:48.300Z,15.10
2024-03-09T14:34:15.801Z,14.50
2024-03-09T14:36:45.221Z,16.17
2024-03-09T14:39:18.354Z,15.50
2024-03-09T14:41:45.677Z,16.77
2024-03-09T14:44:12.734Z,15.18
2024-03-09T14:46:41.356Z,16.40
2024-03-09T14:49:10.687Z,21.15
2024-03-09T14:51:37.976Z,15.25
2024-03-09T14:54:05.647Z,16.20
2024-03-09T14:56:32.508Z,16.13
2024-03-09T14:59:06.353Z,15.52
2024-03-09T15:01:33.420Z,14.20
2024-03-09T15:04:00.391Z,14.82
2024-03-09T15:06:28.613Z,16.55
2024-03-09T15:08:59.935Z,15.98
2024-03-09T15:11:27.634Z,16.67
2024-03-09T15:13:55.593Z,17.02
2024-03-09T15:16:24.250Z,15.38
2024-03-09T15:18:54.227Z,16.80
2024-03-09T15:21:26.516Z,16.38
2024-03-09T15:23:55.363Z,20.30
2024-03-09T15:26:27.668Z,14.85
2024-03-09T15:28:57.620Z,15.48
2024-03-09T15:31:24.995Z,21.42
2024-03-09T15:33:54.696Z,19.65
2024-03-09T15:36:22.023Z,17.02
2024-03-09T15:38:49.673Z,18.00
2024-03-09T15:41:17.627Z,16.02
2024-03-09T15:43:48.032Z,16.27
2024-03-09T15:46:20.034Z,15.75
2024-03-09T15:48:48.057Z,17.38
2024-03-09T15:51:15.817Z,17.38
2024-03-09T15:53:43.440Z,15.45
2024-03-09T15:56:11.569Z,16.27
2024-03-09T15:58:41.861Z,16.48
2024-03-09T16:01:09.845Z,17.98
2024-03-09T16:03:38.203Z,16.27
2024-03-09T16:06:05.562Z,21.00
2024-03-09T16:08:34.741Z,21.42
2024-03-09T16:11:04.544Z,31.15
2024-03-09T16:16:08.551Z,31.27
2024-03-09T16:18:35.973Z,24.80
2024-03-09T16:21:08.812Z,27.45
2024-03-09T16:23:41.205Z,20.02
2024-03-09T16:26:09.271Z,19.02
2024-03-09T16:28:38.866Z,27.63
2024-03-09T16:31:06.568Z,19.70
2024-03-09T16:33:34.482Z,19.23
2024-03-09T16:36:03.760Z,22.55
2024-03-09T16:38:31.126Z,24.00
2024-03-09T16:40:58.403Z,16.92
2024-03-09T16:43:33.120Z,25.42
2024-03-09T16:46:07.169Z,20.55
2024-03-09T16:48:38.751Z,21.20
2024-03-09T16:51:10.164Z,21.08
2024-03-09T16:53:41.017Z,23.88
2024-03-09T16:56:09.981Z,23.85
2024-03-09T16:58:36.937Z,22.48
2024-03-09T17:01:06.087Z,23.50
2024-03-09T17:03:34.216Z,24.15
2024-03-09T17:06:01.731Z,23.45
2024-03-09T17:08:30.514Z,25.88
2024-03-09T17:10:58.919Z,21.60
2024-03-09T17:13:25.886Z,23.80
2024-03-09T17:15:52.766Z,22.83
2024-03-09T17:18:23.077Z,26.08
2024-03-09T17:20:54.060Z,18.77
2024-03-09T17:23:22.028Z,18.33
2024-03-09T17:25:49.682Z,18.13
2024-03-09T17:28:21.773Z,22.90
2024-03-09T17:30:50.310Z,22.10
2024-03-09T17:33:18.017Z,16.13
2024-03-09T17:35:45.291Z,26.00
2024-03-09T17:38:12.405Z,17.83
2024-03-09T17:40:41.384Z,17.40
2024-03-09T17:43:11.276Z,17.05
2024-03-09T17:45:38.976Z,25.55
2024-03-09T17:48:09.392Z,21.05
2024-03-09T17:50:37.673Z,23.35
2024-03-09T17:53:06.994Z,21.85
2024-03-09T17:55:34.238Z,25.38
2024-03-09T17:58:09.724Z,23.33
2024-03-09T18:00:38.675Z,32.50
2024-03-09T18:03:06.327Z,22.48
2024-03-09T18:05:39.089Z,25.02
2024-03-09T18:08:10.404Z,24.02
2024-03-09T18:10:41.821Z,24.27
2024-03-09T18:13:11.306Z,22.98
2024-03-09T18:15:38.648Z,22.33
2024-03-09T18:18:12.604Z,31.33
2024-03-09T18:20:43.238Z,24.05
2024-03-09T18:23:11.165Z,23.25
2024-03-09T18:25:38.395Z,25.42
2024-03-09T18:28:07.474Z,26.98
2024-03-09T18:30:36.268Z,28.65
2024-03-09T18:33:08.142Z,23.30
2024-03-09T18:35:35.669Z,25.02
2024-03-09T18:38:04.237Z,23.63
2024-03-09T18:40:32.015Z,24.17
2024-03-09T18:43:00.183Z,25.10
2024-03-09T18:45:30.078Z,21.55
2024-03-09T18:47:58.874Z,23.35
2024-03-09T18:50:29.187Z,22.95
2024-03-09T18:53:00.708Z,23.42
2024-03-09T18:55:29.242Z,21.98
2024-03-09T18:57:56.683Z,25.88
2024-03-09T19:00:31.607Z,33.20
2024-03-09T19:02:59.584Z,27.75
2024-03-09T19:05:29.097Z,23.40
2024-03-09T19:07:57.093Z,23.67
2024-03-09T19:10:24.594Z,30.17
2024-03-09T19:12:52.864Z,22.75
2024-03-09T19:15:24.395Z,24.77
2024-03-09T19:17:52.401Z,26.90
2024-03-09T19:20:26.329Z,24.63
2024-03-09T19:22:54.158Z,24.15
2024-03-09T19:25:21.833Z,24.40
2024-03-09T19:27:49.024Z,24.88
2024-03-09T19:30:17.463Z,23.73
2024-03-09T19:32:46.018Z,23.65
2024-03-09T19:35:17.464Z,29.33
2024-03-09T19:37:45.211Z,24.65
2024-03-09T19:40:15.635Z,24.77
2024-03-09T19:42:46.919Z,24.25
2024-03-09T19:45:19.654Z,32.35
2024-03-09T19:47:48.954Z,24.75
2024-03-09T19:50:19.448Z,24.73
2024-03-09T19:52:50.576Z,25.23
2024-03-09T19:55:19.379Z,24.75
2024-03-09T19:57:49.685Z,34.90
2024-03-09T20:00:22.050Z,25.60
2024-03-09T20:02:52.264Z,24.35
2024-03-09T20:05:23.422Z,27.20
2024-03-09T20:07:57.523Z,28.27
2024-03-09T20:10:26.235Z,33.72
2024-03-09T20:12:55.948Z,26.42
2024-03-09T20:15:23.077Z,26.58
2024-03-09T20:17:55.964Z,27.23
2024-03-09T20:20:24.468Z,28.73
2024-03-09T20:22:58.954Z,32.08
2024-03-09T20:25:26.149Z,25.13
2024-03-09T20:27:53.156Z,23.40
2024-03-09T20:30:23.122Z,26.52
2024-03-09T20:32:51.260Z,21.52
2024-03-09T20:35:21.367Z,21.52
2024-03-09T20:37:49.195Z,21.75
2024-03-09T20:40:17.476Z,21.70
2024-03-09T20:42:50.061Z,24.40
2024-03-09T20:45:18.481Z,27.25
2024-03-09T20:47:46.373Z,21.58
2024-03-09T20:50:17.463Z,21.23
2024-03-09T20:52:54.085Z,21.67
2024-03-09T20:55:21.544Z,22.27
2024-03-09T20:57:48.909Z,25.52
2024-03-09T21:00:19.260Z,28.83
2024-03-09T21:02:46.880Z,24.92
2024-03-09T21:05:14.330Z,24.90
2024-03-09T21:07:44.406Z,24.58
2024-03-09T21:10:12.922Z,22.90
2024-03-09T21:12:40.876Z,21.17
2024-03-09T21:15:08.185Z,21.65
2024-03-09T21:17:35.984Z,24.40
2024-03-09T21:20:05.825Z,25.30
2024-03-09T21:24:59.794Z,22.48
2024-03-09T21:27:26.918Z,22.90
2024-03-09T21:29:55.214Z,23.10
2024-03-09T21:32:22.249Z,21.90
2024-03-09T21:34:49.783Z,23.00
2024-03-09T21:37:16.726Z,22.00
2024-03-09T21:39:44.176Z,28.17
2024-03-09T21:42:15.786Z,22.52
2024-03-09T21:44:42.793Z,23.55
2024-03-09T21:47:10.522Z,23.05
2024-03-09T21:49:37.569Z,38.50
2024-03-09T21:52:04.733Z,22.27
2024-03-09T21:54:33.761Z,25.20
2024-03-09T21:57:00.993Z,22.63
2024-03-09T21:59:27.884Z,28.35
2024-03-09T22:01:55.782Z,25.30
2024-03-09T22:04:23.015Z,23.65
2024-03-09T22:06:49.870Z,27.58
2024-03-09T22:09:16.778Z,25.98
2024-03-09T22:11:43.790Z,28.77
2024-03-09T22:14:10.896Z,26.83
2024-03-09T22:16:37.835Z,26.48
2024-03-09T22:19:07.911Z,28.08
2024-03-09T22:21:35.887Z,33.45
2024-03-09T22:24:04.066Z,29.63
2024-03-09T22:26:31.449Z,28.77
2024-03-09T22:28:59.382Z,33.20
2024-03-09T22:31:27.049Z,30.52
2024-03-09T22:33:54.840Z,30.33
2024-03-09T22:36:22.016Z,25.15
2024-03-09T22:38:49.571Z,31.15
2024-03-09T22:41:17.012Z,24.25
2024-03-09T22:43:44.048Z,22.90
2024-03-09T22:46:12.435Z,26.20
2024-03-09T22:48:39.427Z,29.58
2024-03-09T22:51:06.684Z,33.38
2024-03-09T22:53:34.486Z,40.45
2024-03-09T22:56:02.502Z,32.92
2024-03-09T22:58:29.428Z,31.30
2024-03-09T23:01:14.946Z,31.15
2024-03-09T23:03:41.999Z,30.13
2024-03-09T23:06:08.925Z,32.28
2024-03-09T23:08:35.876Z,31.83
2024-03-09T23:11:02.918Z,39.53
2024-03-09T23:13:31.638Z,32.30
2024-03-09T23:15:59.833Z,28.98
2024-03-09T23:18:26.972Z,30.42
2024-03-09T23:20:53.885Z,31.48
2024-03-09T23:23:21.071Z,30.40
2024-03-09T23:25:48.445Z,30.23
2024-03-09T23:28:15.420Z,29.42
2024-03-09T23:30:42.481Z,31.30
2024-03-09T23:33:09.457Z,32.95
2024-03-09T23:35:36.795Z,29.52
2024-03-09T23:38:06.811Z,28.55
2024-03-09T23:40:33.784Z,28.48
2024-03-09T23:43:00.617Z,29.65
2024-03-09T23:45:28.687Z,28.85
2024-03-09T23:47:55.542Z,28.15
2024-03-09T23:50:24.072Z,29.38
2024-03-09T23:52:53.204Z,30.30
2024-03-09T23:55:21.921Z,32.15
2024-03-09T23:57:49.586Z,31.57
